createdAt,value
2022-10-30T00:00:15.462Z,80.70678711
2022-10-30T00:01:16.135Z,80.80444336
2022-10-30T00:02:16.686Z,80.49926758
2022-10-30T00:03:17.167Z,80.49926758
2022-10-30T00:04:17.613Z,80.49926758
2022-10-30T00:05:18.266Z,80.40161133
2022-10-30T00:06:19.667Z,80.40161133
2022-10-30T00:07:20.668Z,80.1940918
2022-10-30T00:08:21.751Z,80.40161133
2022-10-30T00:09:22.288Z,80.40161133
2022-10-30T00:10:22.938Z,80.49926758
2022-10-30T00:11:23.641Z,80.49926758
2022-10-30T00:12:24.343Z,80.40161133
2022-10-30T00:13:24.919Z,80.40161133
2022-10-30T00:14:25.405Z,80.29785156
2022-10-30T00:15:25.861Z,80.09643555
2022-10-30T00:16:26.330Z,80.09643555
2022-10-30T00:17:26.862Z,79.58984375
2022-10-30T00:18:28.255Z,79.89501953
2022-10-30T00:19:28.780Z,80.33447266
2022-10-30T00:20:29.270Z,80.63964844
2022-10-30T00:21:29.966Z,80.84106445
2022-10-30T00:22:30.610Z,81.04858398
2022-10-30T00:23:31.250Z,81.14624023
2022-10-30T00:24:31.911Z,80.94482422
2022-10-30T00:25:32.340Z,81.04858398
2022-10-30T00:26:33.009Z,80.94482422
2022-10-30T00:27:33.548Z,80.94482422
2022-10-30T00:28:34.978Z,80.94482422
2022-10-30T00:29:35.697Z,81.04858398
2022-10-30T00:30:36.191Z,81.04858398
2022-10-30T00:31:36.709Z,81.14624023
2022-10-30T00:32:37.249Z,81.14624023
2022-10-30T00:33:38.280Z,81.14624023
2022-10-30T00:34:38.805Z,81.14624023
2022-10-30T00:35:39.334Z,81.04858398
2022-10-30T00:36:39.769Z,80.54199219
2022-10-30T00:38:11.714Z,80.54199219
2022-10-30T00:39:12.432Z,80.54199219
2022-10-30T00:40:13.085Z,80.63964844
2022-10-30T00:41:13.516Z,80.7434082
2022-10-30T00:42:13.977Z,80.54199219
2022-10-30T00:43:14.690Z,80.54199219
2022-10-30T00:44:15.400Z,80.54199219
2022-10-30T00:45:16.122Z,80.54199219
2022-10-30T00:46:16.727Z,80.63964844
2022-10-30T00:47:17.396Z,80.84106445
2022-10-30T00:48:18.560Z,81.04858398
2022-10-30T00:49:19.248Z,81.04858398
2022-10-30T00:50:20.084Z,81.04858398
2022-10-30T00:51:20.407Z,81.04858398
2022-10-30T00:52:20.890Z,80.94482422
2022-10-30T00:53:21.392Z,80.7434082
2022-10-30T00:54:22.195Z,80.63964844
2022-10-30T00:55:23.546Z,80.63964844
2022-10-30T00:56:24.197Z,80.7434082
2022-10-30T00:57:24.727Z,80.94482422
2022-10-30T00:58:26.140Z,81.04858398
2022-10-30T00:59:26.805Z,80.7434082
2022-10-30T01:00:27.288Z,80.94482422
2022-10-30T01:01:27.955Z,81.14624023
2022-10-30T01:02:28.341Z,81.25
2022-10-30T01:03:28.783Z,81.25
2022-10-30T01:04:30.400Z,81.28662109
2022-10-30T01:05:29.911Z,81.39038086
2022-10-30T01:06:31.206Z,81.25
2022-10-30T01:07:31.717Z,80.7434082
2022-10-30T01:08:33.136Z,80.33447266
2022-10-30T01:09:33.828Z,80.23681641
2022-10-30T01:10:34.424Z,80.47485352
2022-10-30T01:11:35.079Z,80.47485352
2022-10-30T01:12:35.618Z,80.57861328
2022-10-30T01:13:36.050Z,80.67626953
2022-10-30T01:14:36.509Z,80.7800293
2022-10-30T01:15:37.334Z,80.98144531
2022-10-30T01:16:37.790Z,81.08520508
2022-10-30T01:17:38.225Z,80.98144531
2022-10-30T01:18:39.277Z,80.88378906
2022-10-30T01:20:10.252Z,80.88378906
2022-10-30T01:21:10.920Z,80.7800293
2022-10-30T01:22:11.581Z,80.7800293
2022-10-30T01:23:13.133Z,80.7800293
2022-10-30T01:24:13.600Z,80.7800293
2022-10-30T01:25:14.058Z,80.47485352
2022-10-30T01:26:14.721Z,80.16967773
2022-10-30T01:27:15.450Z,80.16967773
2022-10-30T01:28:16.634Z,80.2734375
2022-10-30T01:29:17.258Z,80.37109375
2022-10-30T01:30:17.737Z,80.37109375
2022-10-30T01:31:18.219Z,80.47485352
2022-10-30T01:32:18.687Z,80.57861328
2022-10-30T01:33:19.136Z,80.47485352
2022-10-30T01:34:19.603Z,80.37109375
2022-10-30T01:35:20.064Z,80.37109375
2022-10-30T01:36:20.805Z,80.47485352
2022-10-30T01:37:21.488Z,80.2734375
2022-10-30T01:38:23.043Z,80.37109375
2022-10-30T01:39:23.515Z,80.37109375
2022-10-30T01:40:23.971Z,80.37109375
2022-10-30T01:41:24.517Z,80.2734375
2022-10-30T01:42:24.931Z,80.2734375
2022-10-30T01:43:25.408Z,80.37109375
2022-10-30T01:44:25.888Z,80.37109375
2022-10-30T01:45:26.377Z,80.37109375
2022-10-30T01:46:26.905Z,80.47485352
2022-10-30T01:47:27.420Z,80.37109375
2022-10-30T01:48:28.768Z,80.06591797
2022-10-30T01:49:29.775Z,79.7668457
2022-10-30T01:50:30.245Z,79.96826172
2022-10-30T01:51:30.712Z,79.96826172
2022-10-30T01:52:31.208Z,80.06591797
2022-10-30T01:53:31.750Z,80.2734375
2022-10-30T01:54:32.283Z,80.37109375
2022-10-30T01:55:32.798Z,80.06591797
2022-10-30T01:56:33.299Z,80.06591797
2022-10-30T01:57:33.721Z,79.96826172
2022-10-30T01:58:35.034Z,79.96826172
2022-10-30T01:59:35.485Z,79.86450195
2022-10-30T02:00:35.939Z,80.06591797
2022-10-30T02:01:36.580Z,80.16967773
2022-10-30T02:02:37.177Z,80.06591797
2022-10-30T02:03:37.375Z,80.06591797
2022-10-30T02:04:37.847Z,80.16967773
2022-10-30T02:05:38.454Z,80.16967773
2022-10-30T02:07:10.300Z,80.2734375
2022-10-30T02:08:10.772Z,80.47485352
2022-10-30T02:09:11.763Z,80.47485352
2022-10-30T02:10:12.286Z,80.2734375
2022-10-30T02:11:12.784Z,80.47485352
2022-10-30T02:12:13.258Z,80.47485352
2022-10-30T02:13:13.751Z,80.47485352
2022-10-30T02:14:14.252Z,80.47485352
2022-10-30T02:15:14.720Z,80.57861328
2022-10-30T02:16:15.196Z,80.37109375
2022-10-30T02:17:15.695Z,80.16967773
2022-10-30T02:18:16.100Z,80.2734375
2022-10-30T02:19:17.283Z,80.47485352
2022-10-30T02:20:17.714Z,80.57861328
2022-10-30T02:21:18.142Z,80.37109375
2022-10-30T02:22:18.679Z,80.16967773
2022-10-30T02:23:19.124Z,80.06591797
2022-10-30T02:24:19.431Z,80.06591797
2022-10-30T02:25:19.848Z,80.06591797
2022-10-30T02:26:20.615Z,80.16967773
2022-10-30T02:27:21.119Z,80.16967773
2022-10-30T02:28:21.541Z,80.2734375
2022-10-30T02:29:22.801Z,79.96826172
2022-10-30T02:30:23.259Z,79.86450195
2022-10-30T02:31:23.817Z,80.16967773
2022-10-30T02:32:24.291Z,80.20629883
2022-10-30T02:33:24.758Z,80.41381836
2022-10-30T02:34:25.259Z,80.31005859
2022-10-30T02:35:25.734Z,80.20629883
2022-10-30T02:36:26.198Z,80.20629883
2022-10-30T02:37:27.340Z,80.20629883
2022-10-30T02:38:27.758Z,80.31005859
2022-10-30T02:39:28.783Z,80.51147461
2022-10-30T02:40:29.281Z,80.51147461
2022-10-30T02:41:29.778Z,80.41381836
2022-10-30T02:42:30.264Z,80.51147461
2022-10-30T02:43:30.697Z,80.61523438
2022-10-30T02:44:31.191Z,80.81665039
2022-10-30T02:45:31.690Z,80.92041016
2022-10-30T02:46:32.189Z,80.81665039
2022-10-30T02:47:32.688Z,81.02416992
2022-10-30T02:48:33.215Z,80.92041016
2022-10-30T02:49:34.289Z,80.92041016
2022-10-30T02:50:34.758Z,80.71899414
2022-10-30T02:51:35.233Z,80.31005859
2022-10-30T02:52:35.748Z,80.31005859
2022-10-30T02:53:36.217Z,80.41381836
2022-10-30T02:54:36.673Z,80.41381836
2022-10-30T02:55:37.216Z,80.61523438
2022-10-30T02:56:37.770Z,80.71899414
2022-10-30T02:57:38.739Z,80.71899414
2022-10-30T02:59:10.052Z,80.71899414
2022-10-30T03:00:10.491Z,80.41381836
2022-10-30T03:01:11.014Z,80.31005859
2022-10-30T03:02:11.578Z,80.20629883
2022-10-30T03:03:12.580Z,80.20629883
2022-10-30T03:04:13.040Z,80.20629883
2022-10-30T03:05:13.505Z,80.31005859
2022-10-30T03:06:13.986Z,80.31005859
2022-10-30T03:07:14.463Z,80.20629883
2022-10-30T03:08:14.999Z,80.00488281
2022-10-30T03:09:16.258Z,80.10864258
2022-10-30T03:10:16.712Z,80.10864258
2022-10-30T03:11:17.182Z,80.00488281
2022-10-30T03:12:17.609Z,80.10864258
2022-10-30T03:13:18.150Z,80.00488281
2022-10-30T03:14:18.600Z,79.8034668
2022-10-30T03:15:19.266Z,79.8034668
2022-10-30T03:16:19.718Z,79.8034668
2022-10-30T03:17:20.183Z,79.90112305
2022-10-30T03:18:20.884Z,80.00488281
2022-10-30T03:19:22.264Z,80.10864258
2022-10-30T03:20:22.719Z,80.00488281
2022-10-30T03:21:23.164Z,80.10864258
2022-10-30T03:22:23.644Z,80.20629883
2022-10-30T03:23:24.136Z,80.10864258
2022-10-30T03:24:24.638Z,79.90112305
2022-10-30T03:25:25.089Z,79.90112305
2022-10-30T03:26:25.535Z,79.59594727
2022-10-30T03:27:25.997Z,79.59594727
2022-10-30T03:28:26.497Z,79.59594727
2022-10-30T03:29:27.852Z,79.59594727
2022-10-30T03:30:28.320Z,79.69970703
2022-10-30T03:31:28.806Z,79.90112305
2022-10-30T03:32:29.253Z,79.8034668
2022-10-30T03:33:29.749Z,79.59594727
2022-10-30T03:34:30.191Z,79.29077148
2022-10-30T03:35:30.657Z,79.19311523
2022-10-30T03:36:31.185Z,79.29077148
2022-10-30T03:37:32.569Z,79.39453125
2022-10-30T03:38:33.054Z,79.39453125
2022-10-30T03:39:34.307Z,79.39453125
2022-10-30T03:40:34.759Z,79.19311523
2022-10-30T03:41:35.213Z,79.29077148
2022-10-30T03:42:35.709Z,79.32739258
2022-10-30T03:43:36.192Z,79.53491211
2022-10-30T03:44:36.668Z,79.53491211
2022-10-30T03:45:37.126Z,79.32739258
2022-10-30T03:46:38.063Z,79.12597656
2022-10-30T03:48:08.732Z,79.22973633
2022-10-30T03:49:09.228Z,79.22973633
2022-10-30T03:50:10.283Z,79.32739258
2022-10-30T03:51:10.747Z,79.12597656
2022-10-30T03:52:11.309Z,79.12597656
2022-10-30T03:53:11.776Z,79.12597656
2022-10-30T03:54:12.299Z,79.12597656
2022-10-30T03:55:12.721Z,79.32739258
2022-10-30T03:56:13.240Z,79.53491211
2022-10-30T03:57:13.706Z,79.53491211
2022-10-30T03:58:14.175Z,79.43115234
2022-10-30T03:59:15.598Z,79.22973633
2022-10-30T04:00:16.110Z,79.12597656
2022-10-30T04:01:16.644Z,79.12597656
2022-10-30T04:02:17.164Z,79.32739258
2022-10-30T04:03:18.091Z,79.43115234
2022-10-30T04:04:18.495Z,79.32739258
2022-10-30T04:05:18.909Z,79.22973633
2022-10-30T04:06:19.352Z,79.12597656
2022-10-30T04:07:19.877Z,79.12597656
2022-10-30T04:08:21.574Z,79.22973633
2022-10-30T04:09:22.604Z,78.92456055
2022-10-30T04:10:23.970Z,78.92456055
2022-10-30T04:11:23.650Z,79.12597656
2022-10-30T04:12:24.076Z,79.22973633
2022-10-30T04:13:24.573Z,79.32739258
2022-10-30T04:14:25.113Z,79.53491211
2022-10-30T04:15:25.610Z,79.53491211
2022-10-30T04:16:26.096Z,79.53491211
2022-10-30T04:17:26.565Z,79.43115234
2022-10-30T04:18:27.777Z,79.37011719
2022-10-30T04:19:28.231Z,79.5715332
2022-10-30T04:20:28.747Z,79.67529297
2022-10-30T04:21:29.243Z,79.63256836
2022-10-30T04:22:29.722Z,79.67529297
2022-10-30T04:23:30.177Z,79.77294922
2022-10-30T04:24:30.635Z,79.67529297
2022-10-30T04:25:31.117Z,79.5715332
2022-10-30T04:26:31.632Z,79.43115234
2022-10-30T04:27:32.256Z,79.26635742
2022-10-30T04:28:32.967Z,79.37011719
2022-10-30T04:29:33.495Z,79.37011719
2022-10-30T04:30:33.948Z,79.32739258
2022-10-30T04:31:35.291Z,79.43115234
2022-10-30T04:32:35.802Z,79.43115234
2022-10-30T04:33:37.077Z,79.0222168
2022-10-30T04:35:07.931Z,78.82080078
2022-10-30T04:36:08.370Z,78.92456055
2022-10-30T04:37:08.872Z,78.92456055
2022-10-30T04:38:09.405Z,79.16259766
2022-10-30T04:39:09.843Z,79.26635742
2022-10-30T04:40:11.372Z,79.37011719
2022-10-30T04:41:11.870Z,79.26635742
2022-10-30T04:42:12.434Z,79.37011719
2022-10-30T04:43:12.911Z,79.46777344
2022-10-30T04:44:13.417Z,79.46777344
2022-10-30T04:45:15.261Z,79.5715332
2022-10-30T04:46:14.450Z,79.37011719
2022-10-30T04:47:14.930Z,79.5715332
2022-10-30T04:48:15.435Z,79.5715332
2022-10-30T04:49:15.928Z,79.5715332
2022-10-30T04:50:17.351Z,79.46777344
2022-10-30T04:51:17.823Z,79.67529297
2022-10-30T04:52:18.311Z,79.67529297
2022-10-30T04:53:18.772Z,79.87670898
2022-10-30T04:54:19.291Z,79.87670898
2022-10-30T04:55:20.594Z,79.87670898
2022-10-30T04:56:21.015Z,79.87670898
2022-10-30T04:57:21.496Z,79.67529297
2022-10-30T04:58:21.980Z,79.5715332
2022-10-30T04:59:22.426Z,79.67529297
2022-10-30T05:00:23.821Z,79.87670898
2022-10-30T05:01:24.373Z,79.67529297
2022-10-30T05:02:24.823Z,79.77294922
2022-10-30T05:03:25.189Z,79.67529297
2022-10-30T05:04:25.652Z,79.67529297
2022-10-30T05:05:26.199Z,79.5715332
2022-10-30T05:06:27.290Z,79.77294922
2022-10-30T05:07:27.800Z,79.5715332
2022-10-30T05:08:28.277Z,79.5715332
2022-10-30T05:09:28.750Z,79.37011719
2022-10-30T05:10:29.835Z,79.16259766
2022-10-30T05:11:30.628Z,79.26635742
2022-10-30T05:12:31.424Z,79.5715332
2022-10-30T05:13:32.187Z,79.77294922
2022-10-30T05:14:32.763Z,79.91333008
2022-10-30T05:15:33.311Z,80.01708984
2022-10-30T05:16:33.913Z,80.11474609
2022-10-30T05:17:34.565Z,80.11474609
2022-10-30T05:18:35.199Z,80.01708984
2022-10-30T05:19:35.690Z,80.01708984
2022-10-30T05:21:07.359Z,80.11474609
2022-10-30T05:22:08.074Z,80.01708984
2022-10-30T05:23:08.775Z,79.91333008
2022-10-30T05:24:09.609Z,79.91333008
2022-10-30T05:25:10.132Z,80.01708984
2022-10-30T05:26:10.664Z,79.91333008
2022-10-30T05:27:11.145Z,79.6081543
2022-10-30T05:28:11.977Z,79.6081543
2022-10-30T05:29:12.679Z,79.40673828
2022-10-30T05:30:14.135Z,79.40673828
2022-10-30T05:31:14.600Z,79.50439453
2022-10-30T05:32:15.340Z,79.6081543
2022-10-30T05:33:15.712Z,79.6081543
2022-10-30T05:34:16.355Z,79.50439453
2022-10-30T05:35:17.112Z,79.6081543
2022-10-30T05:36:17.618Z,79.71191406
2022-10-30T05:37:18.069Z,79.71191406
2022-10-30T05:38:18.673Z,79.80957031
2022-10-30T05:39:19.464Z,79.71191406
2022-10-30T05:40:20.986Z,79.71191406
2022-10-30T05:41:21.673Z,79.80957031
2022-10-30T05:42:22.137Z,79.80957031
2022-10-30T05:43:22.586Z,79.71191406
2022-10-30T05:44:40.503Z,79.71191406
2022-10-30T05:45:23.981Z,79.80957031
2022-10-30T05:46:24.678Z,79.6081543
2022-10-30T05:47:25.161Z,79.6081543
2022-10-30T05:48:25.643Z,79.6081543
2022-10-30T05:49:26.270Z,79.80957031
2022-10-30T05:50:27.566Z,79.80957031
2022-10-30T05:51:28.324Z,79.80957031
2022-10-30T05:52:28.783Z,79.80957031
2022-10-30T05:53:29.312Z,79.91333008
2022-10-30T05:54:29.794Z,79.91333008
2022-10-30T05:55:30.506Z,79.91333008
2022-10-30T05:56:31.203Z,80.01708984
2022-10-30T05:57:31.866Z,79.80957031
2022-10-30T05:58:32.341Z,79.91333008
2022-10-30T05:59:32.827Z,79.6081543
2022-10-30T06:00:34.077Z,79.50439453
2022-10-30T06:01:35.034Z,79.50439453
2022-10-30T06:02:35.577Z,79.50439453
2022-10-30T06:04:06.793Z,79.50439453
2022-10-30T06:05:07.260Z,79.50439453
2022-10-30T06:06:08.735Z,79.50439453
2022-10-30T06:07:09.450Z,79.40673828
2022-10-30T06:08:10.018Z,79.40673828
2022-10-30T06:09:10.520Z,79.6081543
2022-10-30T06:10:11.038Z,79.80957031
2022-10-30T06:11:12.283Z,80.01708984
2022-10-30T06:12:13.058Z,79.91333008
2022-10-30T06:13:13.645Z,80.01708984
2022-10-30T06:14:14.100Z,80.11474609
2022-10-30T06:15:14.655Z,80.11474609
2022-10-30T06:16:15.279Z,79.91333008
2022-10-30T06:17:16.072Z,79.91333008
2022-10-30T06:18:16.855Z,79.91333008
2022-10-30T06:19:18.857Z,79.80957031
2022-10-30T06:20:18.599Z,79.80957031
2022-10-30T06:21:19.142Z,79.80957031
2022-10-30T06:22:19.898Z,79.80957031
2022-10-30T06:23:20.804Z,79.80957031
2022-10-30T06:24:21.403Z,79.80957031
2022-10-30T06:25:21.907Z,79.6081543
2022-10-30T06:26:22.411Z,79.50439453
2022-10-30T06:27:23.116Z,79.50439453
2022-10-30T06:28:24.594Z,79.6081543
2022-10-30T06:29:25.377Z,79.6081543
2022-10-30T06:30:26.563Z,79.6081543
2022-10-30T06:31:27.035Z,79.71191406
2022-10-30T06:32:27.760Z,79.80957031
2022-10-30T06:33:28.507Z,79.71191406
2022-10-30T06:34:29.223Z,79.71191406
2022-10-30T06:35:29.703Z,79.80957031
2022-10-30T06:36:30.187Z,79.71191406
2022-10-30T06:37:30.675Z,79.80957031
2022-10-30T06:38:31.415Z,79.71191406
2022-10-30T06:39:32.135Z,79.50439453
2022-10-30T06:40:33.604Z,79.50439453
2022-10-30T06:41:34.100Z,79.40673828
2022-10-30T06:42:34.619Z,79.40673828
2022-10-30T06:43:35.883Z,79.50439453
2022-10-30T06:45:06.995Z,79.71191406
2022-10-30T06:47:08.044Z,79.91333008
2022-10-30T06:48:08.605Z,80.01708984
2022-10-30T06:49:09.392Z,79.91333008
2022-10-30T06:50:10.078Z,80.11474609
2022-10-30T06:51:11.433Z,80.01708984
2022-10-30T06:52:11.933Z,79.91333008
2022-10-30T06:53:12.458Z,79.80957031
2022-10-30T06:54:13.224Z,79.80957031
2022-10-30T06:55:13.922Z,79.80957031
2022-10-30T06:56:14.505Z,79.80957031
2022-10-30T06:57:15.002Z,79.80957031
2022-10-30T06:58:15.581Z,79.77294922
2022-10-30T06:59:16.260Z,79.77294922
2022-10-30T07:00:17.700Z,80.38330078
2022-10-30T07:01:18.459Z,80.89599609
2022-10-30T07:02:18.999Z,80.99365234
2022-10-30T07:03:20.735Z,80.99365234
2022-10-30T07:04:21.385Z,81.40258789
2022-10-30T07:05:22.174Z,81.20117188
2022-10-30T07:06:22.868Z,80.28564453
2022-10-30T07:07:23.364Z,80.04150391
2022-10-30T07:08:23.909Z,79.84008789
2022-10-30T07:09:24.555Z,79.12597656
2022-10-30T07:10:26.181Z,78.82080078
2022-10-30T07:11:26.949Z,78.61938477
2022-10-30T07:12:27.552Z,78.61938477
2022-10-30T07:13:28.053Z,78.71704102
2022-10-30T07:14:28.684Z,78.82080078
2022-10-30T07:15:29.483Z,78.92456055
2022-10-30T07:16:30.091Z,78.82080078
2022-10-30T07:17:30.658Z,78.515625
2022-10-30T07:18:31.360Z,78.61938477
2022-10-30T07:19:31.685Z,78.61938477
2022-10-30T07:20:33.195Z,78.82080078
2022-10-30T07:21:33.973Z,78.92456055
2022-10-30T07:22:34.690Z,79.0222168
2022-10-30T07:24:05.714Z,79.0222168
2022-10-30T07:25:06.141Z,78.82080078
2022-10-30T07:26:06.788Z,78.92456055
2022-10-30T07:27:07.476Z,78.82080078
2022-10-30T07:28:08.880Z,78.92456055
2022-10-30T07:29:10.394Z,79.0222168
2022-10-30T07:30:11.103Z,79.32739258
2022-10-30T07:31:11.873Z,79.53491211
2022-10-30T07:32:12.629Z,79.43115234
2022-10-30T17:29:06.794Z,78.67431641
2022-10-30T17:30:07.207Z,79.27856445
2022-10-30T17:31:08.484Z,79.57763672
2022-10-30T17:32:08.921Z,79.8828125
2022-10-30T17:33:09.432Z,79.8828125
2022-10-30T17:34:09.971Z,79.8828125
2022-10-30T17:35:11.447Z,79.8828125
2022-10-30T17:36:11.954Z,80.08422852
2022-10-30T17:37:12.476Z,79.98657227
2022-10-30T17:38:12.962Z,79.98657227
2022-10-30T17:39:14.219Z,79.98657227
2022-10-30T17:40:14.673Z,79.78515625
2022-10-30T17:41:15.140Z,79.57763672
2022-10-30T17:42:15.617Z,79.47998047
2022-10-30T17:43:16.111Z,79.62036133
2022-10-30T17:44:16.666Z,79.71801758
2022-10-30T17:45:17.915Z,79.91943359
2022-10-30T17:46:20.088Z,80.02319336
2022-10-30T17:47:18.835Z,80.02319336
2022-10-30T17:48:19.344Z,79.91943359
2022-10-30T17:49:19.865Z,80.02319336
2022-10-30T17:50:20.651Z,80.02319336
2022-10-30T17:51:21.949Z,80.12084961
2022-10-30T17:52:22.414Z,80.22460938
2022-10-30T17:53:23.438Z,80.32226563
2022-10-30T17:54:23.963Z,80.42602539
2022-10-30T17:55:24.986Z,80.32226563
2022-10-30T17:56:25.457Z,80.12084961
2022-10-30T17:57:26.027Z,80.22460938
2022-10-30T17:58:26.483Z,80.32226563
2022-10-30T17:59:27.437Z,80.36499023
2022-10-30T18:00:58.171Z,80.26123047
2022-10-30T18:01:58.711Z,80.46264648
2022-10-30T18:02:59.453Z,80.6640625
2022-10-30T18:03:59.655Z,80.6640625
2022-10-30T18:05:00.702Z,80.6640625
2022-10-30T18:06:01.171Z,80.76782227
2022-10-30T18:07:01.628Z,80.76782227
2022-10-30T18:08:02.897Z,80.6640625
2022-10-30T18:09:03.394Z,80.56640625
2022-10-30T18:10:04.001Z,80.56640625
2022-10-30T18:11:04.436Z,80.6640625
2022-10-30T18:12:05.685Z,80.70678711
2022-10-30T18:13:06.166Z,80.80444336
2022-10-30T18:14:06.698Z,80.90820313
2022-10-30T18:15:07.729Z,81.10961914
2022-10-30T18:16:08.221Z,81.20727539
2022-10-30T18:17:08.780Z,81.20727539
2022-10-30T18:18:09.265Z,81.20727539
2022-10-30T18:19:09.767Z,81.20727539
2022-10-30T18:20:10.250Z,81.31103516
2022-10-30T18:21:10.762Z,81.20727539
2022-10-30T18:22:11.340Z,81.20727539
2022-10-30T18:23:31.622Z,81.20727539
2022-10-30T18:24:13.226Z,81.31103516
2022-10-30T18:25:14.724Z,81.31103516
2022-10-30T18:26:15.164Z,81.00585938
2022-10-30T18:27:15.628Z,81.00585938
2022-10-30T18:28:16.932Z,81.20727539
2022-10-30T18:29:17.427Z,81.41479492
2022-10-30T18:30:17.999Z,81.45141602
2022-10-30T18:31:18.423Z,81.34765625
2022-10-30T18:32:18.915Z,81.54907227
2022-10-30T18:33:19.417Z,81.45141602
2022-10-30T18:34:19.948Z,81.54907227
2022-10-30T18:35:21.435Z,81.7565918
2022-10-30T18:36:21.911Z,81.85424805
2022-10-30T18:37:22.395Z,81.95800781
2022-10-30T18:38:22.943Z,81.95800781
2022-10-30T18:39:24.286Z,81.65283203
2022-10-30T18:40:24.705Z,81.34765625
2022-10-30T18:41:25.237Z,81.25
2022-10-30T18:42:25.761Z,81.14624023
2022-10-30T18:43:26.283Z,81.25
2022-10-30T18:44:58.210Z,81.34765625
2022-10-30T18:45:58.713Z,81.45141602
2022-10-30T18:47:02.712Z,81.45141602
2022-10-30T18:48:00.033Z,81.34765625
2022-10-30T18:49:00.258Z,81.65283203
2022-10-30T18:50:00.855Z,81.65283203
2022-10-30T18:51:01.342Z,81.54907227
2022-10-30T18:52:01.876Z,81.28662109
2022-10-30T18:53:02.395Z,81.28662109
2022-10-30T18:54:02.981Z,81.39038086
2022-10-30T18:55:04.231Z,81.48803711
2022-10-30T18:56:04.783Z,81.59179688
2022-10-30T18:57:05.240Z,81.68945313
2022-10-30T18:58:05.782Z,81.79321289
2022-10-30T18:59:06.347Z,81.68945313
2022-10-30T19:00:06.869Z,81.59179688
2022-10-30T19:01:11.862Z,81.48803711
2022-10-30T19:02:07.978Z,81.39038086
2022-10-30T19:03:08.413Z,81.39038086
2022-10-30T19:04:08.958Z,81.39038086
2022-10-30T19:05:10.222Z,81.39038086
2022-10-30T19:06:10.847Z,81.48803711
2022-10-30T19:07:11.317Z,81.59179688
2022-10-30T19:08:11.886Z,81.59179688
2022-10-30T19:09:12.380Z,81.68945313
2022-10-30T19:10:12.912Z,81.79321289
2022-10-30T19:11:13.496Z,81.99462891
2022-10-30T19:12:14.029Z,82.29980469
2022-10-30T19:13:15.075Z,82.19604492
2022-10-30T19:14:15.042Z,82.09838867
2022-10-30T19:15:16.213Z,81.99462891
2022-10-30T19:16:16.754Z,81.89697266
2022-10-30T19:17:17.283Z,81.68945313
2022-10-30T19:18:17.885Z,81.59179688
2022-10-30T19:19:18.433Z,81.82983398
2022-10-30T19:20:20.261Z,81.73217773
2022-10-30T19:21:19.983Z,81.68945313
2022-10-30T19:22:20.798Z,81.39038086
2022-10-30T19:23:21.407Z,81.18286133
2022-10-30T19:24:21.979Z,81.28662109
2022-10-30T19:25:23.218Z,81.18286133
2022-10-30T19:26:23.796Z,81.22558594
2022-10-30T19:27:24.431Z,81.22558594
2022-10-30T19:28:24.968Z,81.22558594
2022-10-30T19:29:26.222Z,81.32324219
2022-10-30T19:30:57.096Z,81.32324219
2022-10-30T19:31:57.688Z,81.22558594
2022-10-30T19:32:58.182Z,81.32324219
2022-10-30T19:33:58.729Z,81.5246582
2022-10-30T19:34:59.262Z,81.73217773
2022-10-30T19:36:00.490Z,82.03125
2022-10-30T19:37:01.069Z,82.5378418
2022-10-30T19:38:01.902Z,82.33642578
2022-10-30T19:39:08.519Z,82.23876953
2022-10-30T19:40:02.654Z,82.33642578
2022-10-30T19:41:03.256Z,82.33642578
2022-10-30T19:42:03.829Z,82.33642578
2022-10-30T19:43:04.294Z,82.33642578
2022-10-30T19:44:04.806Z,82.23876953
2022-10-30T19:45:05.402Z,82.23876953
2022-10-30T19:46:06.471Z,82.13500977
2022-10-30T19:47:07.133Z,82.03125
2022-10-30T19:48:07.603Z,81.82983398
2022-10-30T19:49:08.111Z,81.73217773
2022-10-30T19:50:08.610Z,81.5246582
2022-10-30T19:51:09.196Z,81.5246582
2022-10-30T19:52:09.992Z,81.32324219
2022-10-30T19:53:10.493Z,81.32324219
2022-10-30T19:54:11.067Z,81.22558594
2022-10-30T19:55:11.744Z,81.42700195
2022-10-30T19:56:13.075Z,81.62841797
2022-10-30T19:57:13.700Z,81.62841797
2022-10-30T19:58:14.162Z,81.62841797
2022-10-30T19:59:14.902Z,81.62841797
2022-10-30T20:00:15.515Z,81.73217773
2022-10-30T20:01:16.332Z,81.62841797
2022-10-30T20:02:16.702Z,81.73217773
2022-10-30T20:03:17.101Z,81.82983398
2022-10-30T20:04:17.796Z,81.62841797
2022-10-30T20:05:19.198Z,81.76879883
2022-10-30T20:06:19.715Z,81.56738281
2022-10-30T20:07:21.351Z,81.56738281
2022-10-30T20:08:21.818Z,81.46362305
2022-10-30T20:09:22.347Z,81.66503906
2022-10-30T20:10:22.999Z,81.76879883
2022-10-30T20:11:23.611Z,81.87255859
2022-10-30T20:12:24.289Z,81.56738281
2022-10-30T20:13:56.105Z,81.66503906
2022-10-30T20:14:56.639Z,81.87255859
2022-10-30T20:15:58.296Z,81.97021484
2022-10-30T20:16:58.929Z,82.07397461
2022-10-30T20:17:59.846Z,82.07397461
2022-10-30T20:19:00.109Z,82.27539063
2022-10-30T20:20:00.855Z,82.17163086
2022-10-30T20:21:01.692Z,82.07397461
2022-10-30T20:22:02.310Z,81.97021484
2022-10-30T20:23:02.852Z,81.87255859
2022-10-30T20:24:03.348Z,81.76879883
2022-10-30T20:25:04.135Z,81.76879883
2022-10-30T20:26:05.642Z,81.46362305
2022-10-30T20:27:06.233Z,81.56738281
2022-10-30T20:28:07.207Z,81.56738281
2022-10-30T20:29:07.366Z,81.76879883
2022-10-30T20:30:08.835Z,81.87255859
2022-10-30T20:31:09.588Z,81.97021484
2022-10-30T20:32:10.467Z,81.97021484
2022-10-30T20:33:11.053Z,81.87255859
2022-10-30T20:34:11.547Z,81.87255859
2022-10-30T20:35:12.220Z,81.76879883
2022-10-30T20:36:13.691Z,81.56738281
2022-10-30T20:37:14.423Z,81.66503906
2022-10-30T20:38:14.977Z,81.66503906
2022-10-30T20:39:15.478Z,81.46362305
2022-10-30T20:40:16.148Z,81.3659668
2022-10-30T20:41:16.902Z,81.60400391
2022-10-30T20:42:17.623Z,81.50024414
2022-10-30T20:43:19.214Z,81.60400391
2022-10-30T20:44:19.824Z,81.60400391
2022-10-30T20:45:20.628Z,81.70776367
2022-10-30T20:46:22.141Z,81.80541992
2022-10-30T20:47:23.033Z,81.80541992
2022-10-30T20:48:23.777Z,81.90917969
2022-10-30T20:49:24.244Z,82.00683594
2022-10-30T20:50:25.337Z,81.60400391
2022-10-30T20:51:56.690Z,81.70776367
2022-10-30T20:52:57.340Z,81.60400391
2022-10-30T20:53:57.944Z,81.90917969
2022-10-30T20:54:58.411Z,81.80541992
2022-10-30T20:55:59.716Z,81.70776367
2022-10-30T20:57:00.488Z,81.80541992
2022-10-30T20:58:01.714Z,81.70776367
2022-10-30T20:59:01.928Z,81.60400391
2022-10-30T21:00:02.579Z,81.50024414
2022-10-30T21:01:03.269Z,81.50024414
2022-10-30T21:02:04.198Z,81.70776367